SJV608 AYPY-PKMJ
Flight info
| Callsign | SJV608 |
|---|---|
| Flight time | 3h 52m |
| Altitude | 35000 |
| Route | PY B589 TASAK |
| Aircraft | A320/M-SDFGHIRW/EB1 |
Departure
| Time | 2026-04-26 07:33 |
|---|---|
| Airport | Port Moresby Jacksons International Airport (AYPY) |
Arrival
| Time | 2026-04-26 11:25 |
|---|---|
| Airport | Marshall Islands International Airport (PKMJ) |
| Time | Latitude | Longitude | Altitude | Speed | Heading |
|---|---|---|---|---|---|
| 2026-04-26 07:14 | -9.43872 | 147.21210 | 119 ft | 0 kts | 238° |
| 2026-04-26 07:24 | -9.43864 | 147.21223 | 114 ft | 4 kts | 242° |
| 2026-04-26 07:24 | -9.43854 | 147.21247 | 114 ft | 4 kts | 260° |
| 2026-04-26 07:24 | -9.43853 | 147.21270 | 116 ft | 1 kts | 282° |
| 2026-04-26 07:25 | -9.43854 | 147.21271 | 116 ft | 0 kts | 282° |
| 2026-04-26 07:27 | -9.43853 | 147.21270 | 116 ft | 1 kts | 282° |
| 2026-04-26 07:27 | -9.43846 | 147.21259 | 114 ft | 3 kts | 318° |
| 2026-04-26 07:27 | -9.43816 | 147.21252 | 115 ft | 6 kts | 347° |
| 2026-04-26 07:28 | -9.43767 | 147.21240 | 115 ft | 9 kts | 347° |
| 2026-04-26 07:28 | -9.43708 | 147.21258 | 113 ft | 10 kts | 53° |
| 2026-04-26 07:28 | -9.43650 | 147.21279 | 114 ft | 11 kts | 331° |
| 2026-04-26 07:28 | -9.43579 | 147.21235 | 112 ft | 13 kts | 328° |
| 2026-04-26 07:29 | -9.43494 | 147.21181 | 112 ft | 12 kts | 328° |
| 2026-04-26 07:29 | -9.43422 | 147.21135 | 112 ft | 11 kts | 328° |
| 2026-04-26 07:29 | -9.43367 | 147.21099 | 111 ft | 5 kts | 328° |
| 2026-04-26 07:29 | -9.43331 | 147.21082 | 112 ft | 7 kts | 346° |
| 2026-04-26 07:30 | -9.43283 | 147.21093 | 111 ft | 8 kts | 33° |
| 2026-04-26 07:30 | -9.43250 | 147.21142 | 110 ft | 9 kts | 60° |
| 2026-04-26 07:30 | -9.43217 | 147.21202 | 111 ft | 10 kts | 60° |
| 2026-04-26 07:30 | -9.43180 | 147.21269 | 110 ft | 12 kts | 61° |
| 2026-04-26 07:31 | -9.43138 | 147.21342 | 112 ft | 12 kts | 55° |
| 2026-04-26 07:31 | -9.43110 | 147.21383 | 112 ft | 6 kts | 57° |
| 2026-04-26 07:31 | -9.43119 | 147.21414 | 111 ft | 5 kts | 148° |
| 2026-04-26 07:31 | -9.43152 | 147.21432 | 113 ft | 6 kts | 150° |
| 2026-04-26 07:32 | -9.43178 | 147.21447 | 113 ft | 7 kts | 149° |
| 2026-04-26 07:32 | -9.43310 | 147.21528 | 113 ft | 56 kts | 148° |
| 2026-04-26 07:32 | -9.43860 | 147.21867 | 120 ft | 124 kts | 148° |
| 2026-04-26 07:32 | -9.45062 | 147.22618 | 514 ft | 164 kts | 148° |
| 2026-04-26 07:33 | -9.45715 | 147.23033 | 1034 ft | 170 kts | 146° |
| 2026-04-26 07:33 | -9.46746 | 147.23696 | 1818 ft | 179 kts | 146° |
| 2026-04-26 07:33 | -9.47813 | 147.24391 | 2242 ft | 188 kts | 146° |
| 2026-04-26 07:33 | -9.48966 | 147.25146 | 2555 ft | 207 kts | 146° |
| 2026-04-26 07:34 | -9.50259 | 147.25966 | 2826 ft | 231 kts | 146° |
| 2026-04-26 07:34 | -9.51682 | 147.26862 | 3274 ft | 247 kts | 146° |
| 2026-04-26 07:34 | -9.53084 | 147.27885 | 3947 ft | 251 kts | 131° |
| 2026-04-26 07:34 | -9.53991 | 147.29397 | 4601 ft | 257 kts | 106° |
| 2026-04-26 07:35 | -9.54104 | 147.31218 | 5190 ft | 265 kts | 78° |
| 2026-04-26 07:35 | -9.53606 | 147.33042 | 5830 ft | 271 kts | 72° |
| 2026-04-26 07:35 | -9.53061 | 147.34893 | 6467 ft | 277 kts | 72° |
| 2026-04-26 07:35 | -9.52505 | 147.36777 | 7061 ft | 283 kts | 72° |
| 2026-04-26 07:36 | -9.51937 | 147.38704 | 7700 ft | 288 kts | 72° |
| 2026-04-26 07:36 | -9.51389 | 147.40580 | 8271 ft | 292 kts | 73° |
| 2026-04-26 07:36 | -9.50811 | 147.42571 | 8877 ft | 297 kts | 73° |
| 2026-04-26 07:36 | -9.50222 | 147.44597 | 9453 ft | 302 kts | 73° |
| 2026-04-26 07:37 | -9.49623 | 147.46655 | 10022 ft | 307 kts | 73° |
| 2026-04-26 07:37 | -9.49005 | 147.48773 | 10269 ft | 324 kts | 73° |
| 2026-04-26 07:37 | -9.48349 | 147.51030 | 10387 ft | 343 kts | 73° |
| 2026-04-26 07:37 | -9.47658 | 147.53408 | 10518 ft | 361 kts | 73° |
| 2026-04-26 07:38 | -9.46943 | 147.55881 | 10843 ft | 370 kts | 73° |
| 2026-04-26 07:38 | -9.46215 | 147.58396 | 11334 ft | 373 kts | 73° |
| 2026-04-26 07:38 | -9.45480 | 147.60927 | 11851 ft | 376 kts | 73° |
| 2026-04-26 07:38 | -9.44740 | 147.63468 | 12370 ft | 378 kts | 72° |
| 2026-04-26 07:39 | -9.43993 | 147.66034 | 12888 ft | 381 kts | 72° |
| 2026-04-26 07:39 | -9.43242 | 147.68611 | 13362 ft | 383 kts | 73° |
| 2026-04-26 07:39 | -9.42487 | 147.71207 | 13863 ft | 386 kts | 73° |
| 2026-04-26 07:39 | -9.41725 | 147.73826 | 14295 ft | 388 kts | 73° |
| 2026-04-26 07:40 | -9.40955 | 147.76456 | 14726 ft | 391 kts | 73° |
| 2026-04-26 07:40 | -9.40182 | 147.79103 | 15150 ft | 393 kts | 73° |
| 2026-04-26 07:40 | -9.39406 | 147.81768 | 15570 ft | 396 kts | 73° |
| 2026-04-26 07:40 | -9.38627 | 147.84448 | 15990 ft | 398 kts | 73° |
| 2026-04-26 07:41 | -9.37844 | 147.87146 | 16408 ft | 400 kts | 73° |
| 2026-04-26 07:41 | -9.37056 | 147.89855 | 16820 ft | 403 kts | 73° |
| 2026-04-26 07:41 | -9.36260 | 147.92588 | 17234 ft | 405 kts | 73° |
| 2026-04-26 07:41 | -9.35462 | 147.95327 | 17646 ft | 407 kts | 73° |
| 2026-04-26 07:42 | -9.34657 | 147.98085 | 18058 ft | 410 kts | 73° |
| 2026-04-26 07:42 | -9.33847 | 148.00856 | 18418 ft | 412 kts | 73° |
| 2026-04-26 07:42 | -9.33033 | 148.03642 | 18772 ft | 414 kts | 73° |
| 2026-04-26 07:42 | -9.32215 | 148.06442 | 19114 ft | 415 kts | 73° |
| 2026-04-26 07:43 | -9.31384 | 148.09293 | 19473 ft | 417 kts | 73° |
| 2026-04-26 07:43 | -9.30561 | 148.12117 | 19819 ft | 420 kts | 73° |
| 2026-04-26 07:43 | -9.29730 | 148.14959 | 20172 ft | 421 kts | 73° |
| 2026-04-26 07:43 | -9.28896 | 148.17808 | 20507 ft | 424 kts | 73° |
| 2026-04-26 07:44 | -9.28058 | 148.20670 | 20843 ft | 426 kts | 73° |
| 2026-04-26 07:44 | -9.27215 | 148.23553 | 21175 ft | 427 kts | 73° |
| 2026-04-26 07:44 | -9.26370 | 148.26447 | 21496 ft | 429 kts | 73° |
| 2026-04-26 07:44 | -9.25523 | 148.29349 | 21815 ft | 431 kts | 73° |
| 2026-04-26 07:45 | -9.24667 | 148.32266 | 22132 ft | 433 kts | 73° |
| 2026-04-26 07:45 | -9.23806 | 148.35191 | 22436 ft | 435 kts | 73° |
| 2026-04-26 07:45 | -9.22943 | 148.38128 | 22744 ft | 437 kts | 73° |
| 2026-04-26 07:45 | -9.22073 | 148.41088 | 23034 ft | 439 kts | 73° |
| 2026-04-26 07:46 | -9.21202 | 148.44058 | 23324 ft | 441 kts | 73° |
| 2026-04-26 07:46 | -9.20328 | 148.47037 | 23590 ft | 443 kts | 73° |
| 2026-04-26 07:46 | -9.19453 | 148.50025 | 23829 ft | 444 kts | 73° |
| 2026-04-26 07:46 | -9.18570 | 148.53037 | 24068 ft | 446 kts | 73° |
| 2026-04-26 07:47 | -9.17686 | 148.56050 | 24306 ft | 448 kts | 73° |
| 2026-04-26 07:47 | -9.16800 | 148.59079 | 24535 ft | 450 kts | 73° |
| 2026-04-26 07:47 | -9.15907 | 148.62117 | 24767 ft | 451 kts | 73° |
| 2026-04-26 07:47 | -9.15004 | 148.65172 | 24998 ft | 453 kts | 73° |
| 2026-04-26 07:48 | -9.14100 | 148.68235 | 25225 ft | 455 kts | 73° |
| 2026-04-26 07:48 | -9.13192 | 148.71307 | 25454 ft | 457 kts | 73° |
| 2026-04-26 07:48 | -9.12282 | 148.74393 | 25677 ft | 459 kts | 73° |
| 2026-04-26 07:48 | -9.11371 | 148.77494 | 25905 ft | 460 kts | 73° |
| 2026-04-26 07:49 | -9.10457 | 148.80606 | 26128 ft | 462 kts | 73° |
| 2026-04-26 07:49 | -9.09537 | 148.83724 | 26353 ft | 464 kts | 73° |
| 2026-04-26 07:49 | -9.08613 | 148.86858 | 26583 ft | 466 kts | 73° |
| 2026-04-26 07:50 | -9.06749 | 148.93176 | 27022 ft | 469 kts | 73° |
| 2026-04-26 07:50 | -9.05818 | 148.96333 | 27367 ft | 467 kts | 73° |
| 2026-04-26 07:50 | -9.04889 | 148.99475 | 27711 ft | 466 kts | 73° |
| 2026-04-26 07:50 | -9.03960 | 149.02624 | 28049 ft | 466 kts | 74° |
| 2026-04-26 07:51 | -9.03038 | 149.05762 | 28386 ft | 465 kts | 74° |
| 2026-04-26 07:51 | -9.02113 | 149.08908 | 28728 ft | 465 kts | 74° |
| 2026-04-26 07:51 | -9.01260 | 149.11797 | 29057 ft | 464 kts | 74° |
| 2026-04-26 07:51 | -9.00385 | 149.14750 | 29401 ft | 464 kts | 74° |
| 2026-04-26 07:52 | -8.99455 | 149.17880 | 29769 ft | 463 kts | 74° |
| 2026-04-26 07:52 | -8.98532 | 149.20995 | 30103 ft | 463 kts | 74° |
| 2026-04-26 07:52 | -8.97610 | 149.24109 | 30408 ft | 462 kts | 74° |
| 2026-04-26 07:52 | -8.96699 | 149.27188 | 30712 ft | 461 kts | 73° |
| 2026-04-26 07:53 | -8.95777 | 149.30297 | 31015 ft | 461 kts | 73° |
| 2026-04-26 07:53 | -8.94857 | 149.33406 | 31314 ft | 461 kts | 73° |
| 2026-04-26 07:53 | -8.93939 | 149.36514 | 31615 ft | 461 kts | 73° |
| 2026-04-26 07:53 | -8.93022 | 149.39623 | 31917 ft | 460 kts | 73° |
| 2026-04-26 07:54 | -8.92106 | 149.42723 | 32249 ft | 460 kts | 73° |
| 2026-04-26 07:54 | -8.91189 | 149.45823 | 32567 ft | 459 kts | 73° |
| 2026-04-26 07:54 | -8.90262 | 149.48954 | 32887 ft | 459 kts | 73° |
| 2026-04-26 07:54 | -8.89352 | 149.52043 | 33192 ft | 458 kts | 74° |
| 2026-04-26 07:55 | -8.88506 | 149.55157 | 33488 ft | 458 kts | 75° |
| 2026-04-26 07:55 | -8.87730 | 149.58279 | 33779 ft | 458 kts | 76° |
| 2026-04-26 07:55 | -8.86994 | 149.61412 | 34028 ft | 457 kts | 77° |
| 2026-04-26 07:55 | -8.86270 | 149.64535 | 34288 ft | 456 kts | 76° |
| 2026-04-26 07:56 | -8.85538 | 149.67652 | 34557 ft | 455 kts | 76° |
| 2026-04-26 07:56 | -8.84790 | 149.70761 | 34782 ft | 454 kts | 75° |
| 2026-04-26 07:56 | -8.83250 | 149.76996 | 34848 ft | 462 kts | 75° |
| 2026-04-26 07:57 | -8.81661 | 149.83367 | 34847 ft | 470 kts | 75° |
| 2026-04-26 07:57 | -8.80071 | 149.89790 | 34845 ft | 471 kts | 75° |
| 2026-04-26 07:58 | -8.78487 | 149.96218 | 34847 ft | 471 kts | 75° |
| 2026-04-26 07:58 | -8.76899 | 150.02643 | 34845 ft | 471 kts | 75° |
| 2026-04-26 07:59 | -8.75318 | 150.09029 | 34851 ft | 471 kts | 75° |
| 2026-04-26 07:59 | -8.73725 | 150.15444 | 34853 ft | 471 kts | 75° |
| 2026-04-26 08:00 | -8.72129 | 150.21866 | 34855 ft | 471 kts | 75° |
| 2026-04-26 08:00 | -8.70531 | 150.28286 | 34856 ft | 471 kts | 75° |
| 2026-04-26 08:01 | -8.68930 | 150.34727 | 34857 ft | 472 kts | 75° |
| 2026-04-26 08:01 | -8.67339 | 150.41157 | 34854 ft | 472 kts | 75° |
| 2026-04-26 08:02 | -8.65741 | 150.47596 | 34854 ft | 472 kts | 74° |
| 2026-04-26 08:02 | -8.64141 | 150.54036 | 34866 ft | 472 kts | 74° |
| 2026-04-26 08:03 | -8.62536 | 150.60471 | 34865 ft | 472 kts | 74° |
| 2026-04-26 08:03 | -8.60924 | 150.66914 | 34862 ft | 472 kts | 74° |
| 2026-04-26 08:04 | -8.59312 | 150.73342 | 34866 ft | 472 kts | 74° |
| 2026-04-26 08:04 | -8.57707 | 150.79783 | 34865 ft | 472 kts | 74° |
| 2026-04-26 08:05 | -8.56374 | 150.85139 | 34864 ft | 473 kts | 74° |
| 2026-04-26 08:05 | -8.54764 | 150.91600 | 34863 ft | 473 kts | 74° |
| 2026-04-26 08:06 | -8.53150 | 150.98046 | 34864 ft | 473 kts | 74° |
| 2026-04-26 08:06 | -8.51498 | 151.04481 | 34865 ft | 472 kts | 70° |
| 2026-04-26 08:07 | -8.48612 | 151.10368 | 34865 ft | 467 kts | 52° |
| 2026-04-26 08:07 | -8.44445 | 151.15407 | 34864 ft | 465 kts | 47° |
| 2026-04-26 08:08 | -8.40252 | 151.20378 | 34863 ft | 465 kts | 48° |
| 2026-04-26 08:08 | -8.36062 | 151.25352 | 34864 ft | 464 kts | 48° |
| 2026-04-26 08:09 | -8.31875 | 151.30319 | 34868 ft | 464 kts | 48° |
| 2026-04-26 08:09 | -8.27695 | 151.35272 | 34867 ft | 463 kts | 48° |
| 2026-04-26 08:10 | -8.23520 | 151.40216 | 34870 ft | 462 kts | 48° |
| 2026-04-26 08:10 | -8.19349 | 151.45149 | 34874 ft | 461 kts | 48° |
| 2026-04-26 08:11 | -8.15191 | 151.50066 | 34871 ft | 460 kts | 48° |
| 2026-04-26 08:11 | -8.11041 | 151.54979 | 34869 ft | 459 kts | 48° |
| 2026-04-26 08:12 | -8.06895 | 151.59878 | 34868 ft | 459 kts | 48° |
| 2026-04-26 08:12 | -8.02740 | 151.64771 | 34864 ft | 459 kts | 48° |
| 2026-04-26 08:13 | -7.98594 | 151.69670 | 34862 ft | 459 kts | 48° |
| 2026-04-26 08:13 | -7.94444 | 151.74578 | 34861 ft | 459 kts | 48° |
| 2026-04-26 08:14 | -7.90299 | 151.79486 | 34858 ft | 460 kts | 48° |
| 2026-04-26 08:14 | -7.86138 | 151.84400 | 34859 ft | 460 kts | 47° |
| 2026-04-26 08:15 | -7.81932 | 151.89357 | 34857 ft | 471 kts | 47° |
| 2026-04-26 08:15 | -7.77612 | 151.94442 | 34854 ft | 482 kts | 47° |
| 2026-04-26 08:16 | -7.73225 | 151.99607 | 34853 ft | 485 kts | 47° |
| 2026-04-26 08:16 | -7.68829 | 152.04790 | 34853 ft | 485 kts | 47° |
| 2026-04-26 08:17 | -7.64448 | 152.09965 | 34854 ft | 485 kts | 47° |
| 2026-04-26 08:17 | -7.60089 | 152.15100 | 34858 ft | 485 kts | 47° |
| 2026-04-26 08:18 | -7.55692 | 152.20275 | 34861 ft | 485 kts | 47° |
| 2026-04-26 08:18 | -7.51307 | 152.25442 | 34867 ft | 485 kts | 47° |
| 2026-04-26 08:19 | -7.46914 | 152.30603 | 34870 ft | 485 kts | 47° |
| 2026-04-26 08:19 | -7.42526 | 152.35762 | 34869 ft | 485 kts | 47° |
| 2026-04-26 08:20 | -7.38115 | 152.40954 | 34869 ft | 484 kts | 47° |
| 2026-04-26 08:20 | -7.33756 | 152.46073 | 34870 ft | 484 kts | 47° |
| 2026-04-26 08:21 | -7.29372 | 152.51219 | 34873 ft | 484 kts | 47° |
| 2026-04-26 08:21 | -7.24985 | 152.56365 | 34870 ft | 484 kts | 47° |
| 2026-04-26 08:22 | -7.20600 | 152.61522 | 34869 ft | 484 kts | 47° |
| 2026-04-26 08:22 | -7.16211 | 152.66675 | 34870 ft | 484 kts | 47° |
| 2026-04-26 08:23 | -7.11834 | 152.71815 | 34867 ft | 484 kts | 47° |
| 2026-04-26 08:23 | -7.07442 | 152.76968 | 34869 ft | 484 kts | 47° |
| 2026-04-26 08:24 | -7.03078 | 152.82086 | 34868 ft | 484 kts | 47° |
| 2026-04-26 08:24 | -6.98691 | 152.87229 | 34870 ft | 484 kts | 47° |
| 2026-04-26 08:25 | -6.94302 | 152.92372 | 34867 ft | 484 kts | 47° |
| 2026-04-26 08:25 | -6.89916 | 152.97507 | 34869 ft | 484 kts | 47° |
| 2026-04-26 08:26 | -6.85518 | 153.02657 | 34869 ft | 484 kts | 47° |
| 2026-04-26 08:26 | -6.81128 | 153.07794 | 34869 ft | 484 kts | 47° |
| 2026-04-26 08:27 | -6.76752 | 153.12929 | 34868 ft | 483 kts | 47° |
| 2026-04-26 08:27 | -6.72395 | 153.18032 | 34869 ft | 483 kts | 47° |
| 2026-04-26 08:28 | -6.68003 | 153.23166 | 34869 ft | 483 kts | 47° |
| 2026-04-26 08:28 | -6.63614 | 153.28282 | 34868 ft | 483 kts | 47° |
| 2026-04-26 08:29 | -6.59234 | 153.33405 | 34870 ft | 483 kts | 48° |
| 2026-04-26 08:29 | -6.54832 | 153.38565 | 34868 ft | 482 kts | 48° |
| 2026-04-26 08:30 | -6.50456 | 153.43680 | 34870 ft | 482 kts | 47° |
| 2026-04-26 08:30 | -6.46066 | 153.48790 | 34869 ft | 482 kts | 47° |
| 2026-04-26 08:31 | -6.41731 | 153.53861 | 34867 ft | 482 kts | 47° |
| 2026-04-26 08:31 | -6.37346 | 153.58977 | 34872 ft | 481 kts | 47° |
| 2026-04-26 08:32 | -6.32954 | 153.64067 | 34870 ft | 481 kts | 47° |
| 2026-04-26 08:32 | -6.28569 | 153.69154 | 34871 ft | 481 kts | 47° |
| 2026-04-26 08:33 | -6.24189 | 153.74237 | 34869 ft | 481 kts | 47° |
| 2026-04-26 08:33 | -6.19806 | 153.79315 | 34872 ft | 481 kts | 47° |
| 2026-04-26 08:34 | -6.15422 | 153.84397 | 34867 ft | 481 kts | 47° |
| 2026-04-26 08:34 | -6.11035 | 153.89472 | 34871 ft | 480 kts | 47° |
| 2026-04-26 08:35 | -6.06669 | 153.94550 | 34871 ft | 480 kts | 47° |
| 2026-04-26 08:35 | -6.02297 | 153.99629 | 34869 ft | 480 kts | 47° |
| 2026-04-26 08:36 | -5.97950 | 154.04668 | 34869 ft | 479 kts | 47° |
| 2026-04-26 08:36 | -5.93578 | 154.09725 | 34867 ft | 479 kts | 47° |
| 2026-04-26 08:37 | -5.89204 | 154.14778 | 34869 ft | 479 kts | 47° |
| 2026-04-26 08:37 | -5.84834 | 154.19835 | 34871 ft | 479 kts | 47° |
| 2026-04-26 08:38 | -5.80476 | 154.24879 | 34873 ft | 478 kts | 47° |
| 2026-04-26 08:38 | -5.76113 | 154.29933 | 34874 ft | 478 kts | 47° |
| 2026-04-26 08:39 | -5.72489 | 154.34129 | 34873 ft | 478 kts | 47° |
| 2026-04-26 08:39 | -5.68132 | 154.39165 | 34869 ft | 478 kts | 47° |
| 2026-04-26 08:40 | -5.63770 | 154.44204 | 34878 ft | 478 kts | 47° |
| 2026-04-26 08:40 | -5.59415 | 154.49239 | 34877 ft | 477 kts | 47° |
| 2026-04-26 08:41 | -5.55053 | 154.54271 | 34878 ft | 477 kts | 47° |
| 2026-04-26 08:41 | -5.50699 | 154.59292 | 34877 ft | 477 kts | 47° |
| 2026-04-26 08:42 | -5.46353 | 154.64332 | 34878 ft | 477 kts | 47° |
| 2026-04-26 08:42 | -5.42080 | 154.69437 | 34877 ft | 478 kts | 51° |
| 2026-04-26 08:43 | -5.38110 | 154.74794 | 34878 ft | 478 kts | 53° |
| 2026-04-26 08:43 | -5.34234 | 154.80227 | 34878 ft | 478 kts | 53° |
| 2026-04-26 08:44 | -5.30293 | 154.85616 | 34873 ft | 478 kts | 52° |
| 2026-04-26 08:44 | -5.26298 | 154.90954 | 34878 ft | 478 kts | 52° |
| 2026-04-26 08:45 | -5.22294 | 154.96291 | 34874 ft | 478 kts | 52° |
| 2026-04-26 08:45 | -5.18297 | 155.01639 | 34875 ft | 478 kts | 52° |
| 2026-04-26 08:46 | -5.14316 | 155.06998 | 34874 ft | 478 kts | 52° |
| 2026-04-26 08:46 | -5.10335 | 155.12358 | 34872 ft | 478 kts | 52° |
| 2026-04-26 08:47 | -5.06351 | 155.17711 | 34870 ft | 479 kts | 52° |
| 2026-04-26 08:47 | -5.02364 | 155.23058 | 34870 ft | 479 kts | 52° |
| 2026-04-26 08:48 | -4.98372 | 155.28412 | 34870 ft | 479 kts | 52° |
| 2026-04-26 08:48 | -4.94406 | 155.33742 | 34869 ft | 479 kts | 52° |
| 2026-04-26 08:49 | -4.90411 | 155.39098 | 34872 ft | 479 kts | 52° |
| 2026-04-26 08:49 | -4.86389 | 155.44481 | 34871 ft | 479 kts | 52° |
| 2026-04-26 08:50 | -4.82394 | 155.49826 | 34876 ft | 478 kts | 52° |
| 2026-04-26 08:50 | -4.78408 | 155.55168 | 34873 ft | 478 kts | 52° |
| 2026-04-26 08:51 | -4.72443 | 155.63177 | 34872 ft | 478 kts | 52° |
| 2026-04-26 08:52 | -4.68462 | 155.68518 | 34874 ft | 478 kts | 52° |
| 2026-04-26 08:52 | -4.64473 | 155.73860 | 34875 ft | 478 kts | 52° |
| 2026-04-26 08:53 | -4.60479 | 155.79204 | 34879 ft | 478 kts | 52° |
| 2026-04-26 08:53 | -4.56485 | 155.84543 | 34879 ft | 478 kts | 52° |
| 2026-04-26 08:54 | -4.52489 | 155.89893 | 34878 ft | 478 kts | 52° |
| 2026-04-26 08:54 | -4.48498 | 155.95230 | 34880 ft | 478 kts | 52° |
| 2026-04-26 08:55 | -4.44504 | 156.00562 | 34880 ft | 478 kts | 52° |
| 2026-04-26 08:55 | -4.40525 | 156.05897 | 34881 ft | 478 kts | 52° |
| 2026-04-26 08:56 | -4.36544 | 156.11229 | 34879 ft | 477 kts | 52° |
| 2026-04-26 08:56 | -4.32587 | 156.16521 | 34877 ft | 477 kts | 52° |
| 2026-04-26 08:57 | -4.28603 | 156.21849 | 34875 ft | 477 kts | 52° |
| 2026-04-26 08:57 | -4.24615 | 156.27174 | 34875 ft | 478 kts | 52° |
| 2026-04-26 08:58 | -4.20591 | 156.32540 | 34876 ft | 478 kts | 52° |
| 2026-04-26 08:58 | -4.16601 | 156.37876 | 34874 ft | 478 kts | 52° |
| 2026-04-26 08:59 | -4.12614 | 156.43212 | 34872 ft | 478 kts | 52° |
| 2026-04-26 08:59 | -4.08621 | 156.48546 | 34873 ft | 478 kts | 52° |
| 2026-04-26 09:00 | -4.04622 | 156.53882 | 34873 ft | 478 kts | 52° |
| 2026-04-26 09:00 | -4.00622 | 156.59213 | 34879 ft | 478 kts | 52° |
| 2026-04-26 09:01 | -3.96656 | 156.64505 | 34879 ft | 478 kts | 52° |
| 2026-04-26 09:01 | -3.92666 | 156.69832 | 34883 ft | 477 kts | 52° |
| 2026-04-26 09:02 | -3.88690 | 156.75148 | 34884 ft | 477 kts | 52° |
| 2026-04-26 09:02 | -3.84711 | 156.80459 | 34890 ft | 476 kts | 52° |
| 2026-04-26 09:03 | -3.80732 | 156.85765 | 34893 ft | 476 kts | 52° |
| 2026-04-26 09:03 | -3.76751 | 156.91067 | 34890 ft | 476 kts | 52° |
| 2026-04-26 09:04 | -3.72784 | 156.96362 | 34885 ft | 475 kts | 52° |
| 2026-04-26 09:04 | -3.68812 | 157.01661 | 34888 ft | 475 kts | 52° |
| 2026-04-26 09:05 | -3.64844 | 157.06948 | 34884 ft | 475 kts | 52° |
| 2026-04-26 09:05 | -3.60874 | 157.12230 | 34882 ft | 474 kts | 52° |
| 2026-04-26 09:06 | -3.56882 | 157.17549 | 34879 ft | 474 kts | 52° |
| 2026-04-26 09:06 | -3.52946 | 157.22800 | 34879 ft | 474 kts | 52° |
| 2026-04-26 09:07 | -3.48962 | 157.28118 | 34878 ft | 474 kts | 52° |
| 2026-04-26 09:07 | -3.45015 | 157.33377 | 34878 ft | 474 kts | 52° |
| 2026-04-26 09:08 | -3.41047 | 157.38655 | 34876 ft | 474 kts | 52° |
| 2026-04-26 09:08 | -3.37083 | 157.43928 | 34877 ft | 474 kts | 52° |
| 2026-04-26 09:09 | -3.33115 | 157.49208 | 34880 ft | 474 kts | 52° |
| 2026-04-26 09:09 | -3.29157 | 157.54479 | 34880 ft | 474 kts | 53° |
| 2026-04-26 09:10 | -3.25837 | 157.58895 | 34882 ft | 474 kts | 53° |
| 2026-04-26 09:10 | -3.21873 | 157.64177 | 34881 ft | 474 kts | 53° |
| 2026-04-26 09:11 | -3.17918 | 157.69431 | 34881 ft | 474 kts | 53° |
| 2026-04-26 09:11 | -3.13951 | 157.74704 | 34881 ft | 474 kts | 53° |
| 2026-04-26 09:12 | -3.09982 | 157.79984 | 34881 ft | 474 kts | 53° |
| 2026-04-26 09:12 | -3.06017 | 157.85257 | 34882 ft | 474 kts | 53° |
| 2026-04-26 09:13 | -3.02047 | 157.90533 | 34881 ft | 474 kts | 53° |
| 2026-04-26 09:13 | -2.98058 | 157.95852 | 34877 ft | 475 kts | 53° |
| 2026-04-26 09:14 | -2.94107 | 158.01098 | 34880 ft | 475 kts | 53° |
| 2026-04-26 09:14 | -2.90136 | 158.06378 | 34877 ft | 475 kts | 53° |
| 2026-04-26 09:15 | -2.86160 | 158.11656 | 34876 ft | 475 kts | 53° |
| 2026-04-26 09:15 | -2.82177 | 158.16940 | 34882 ft | 475 kts | 53° |
| 2026-04-26 09:16 | -2.78204 | 158.22222 | 34880 ft | 475 kts | 53° |
| 2026-04-26 09:16 | -2.74228 | 158.27516 | 34883 ft | 475 kts | 53° |
| 2026-04-26 09:17 | -2.70248 | 158.32795 | 34886 ft | 475 kts | 53° |
| 2026-04-26 09:17 | -2.66268 | 158.38081 | 34886 ft | 475 kts | 53° |
| 2026-04-26 09:18 | -2.62298 | 158.43366 | 34886 ft | 475 kts | 53° |
| 2026-04-26 09:18 | -2.58326 | 158.48642 | 34886 ft | 475 kts | 53° |
| 2026-04-26 09:19 | -2.54348 | 158.53911 | 34887 ft | 474 kts | 53° |
| 2026-04-26 09:19 | -2.50379 | 158.59184 | 34885 ft | 474 kts | 53° |
| 2026-04-26 09:20 | -2.46408 | 158.64456 | 34887 ft | 474 kts | 53° |
| 2026-04-26 09:20 | -2.42439 | 158.69718 | 34889 ft | 474 kts | 53° |
| 2026-04-26 09:21 | -2.38477 | 158.74989 | 34890 ft | 474 kts | 53° |
| 2026-04-26 09:21 | -2.34504 | 158.80250 | 34889 ft | 474 kts | 53° |
| 2026-04-26 09:22 | -2.30531 | 158.85521 | 34893 ft | 474 kts | 53° |
| 2026-04-26 09:22 | -2.26569 | 158.90781 | 34889 ft | 473 kts | 53° |
| 2026-04-26 09:23 | -2.22616 | 158.96025 | 34889 ft | 473 kts | 53° |
| 2026-04-26 09:23 | -2.18641 | 159.01293 | 34889 ft | 473 kts | 53° |
| 2026-04-26 09:24 | -2.14678 | 159.06553 | 34888 ft | 473 kts | 53° |
| 2026-04-26 09:24 | -2.10735 | 159.11785 | 34884 ft | 473 kts | 53° |
| 2026-04-26 09:25 | -2.06743 | 159.17074 | 34881 ft | 474 kts | 53° |
| 2026-04-26 09:25 | -2.02772 | 159.22337 | 34882 ft | 474 kts | 53° |
| 2026-04-26 09:26 | -1.98797 | 159.27599 | 34880 ft | 474 kts | 53° |
| 2026-04-26 09:26 | -1.94817 | 159.32880 | 34882 ft | 475 kts | 54° |
| 2026-04-26 09:27 | -1.90845 | 159.38147 | 34885 ft | 475 kts | 53° |
| 2026-04-26 09:27 | -1.86860 | 159.43422 | 34887 ft | 475 kts | 53° |
| 2026-04-26 09:28 | -1.82881 | 159.48692 | 34891 ft | 475 kts | 53° |
| 2026-04-26 09:28 | -1.78932 | 159.53932 | 34892 ft | 474 kts | 53° |
| 2026-04-26 09:29 | -1.74967 | 159.59201 | 34889 ft | 474 kts | 53° |
| 2026-04-26 09:29 | -1.70985 | 159.64471 | 34887 ft | 474 kts | 53° |
| 2026-04-26 09:30 | -1.67005 | 159.69743 | 34891 ft | 474 kts | 53° |
| 2026-04-26 09:30 | -1.63036 | 159.75005 | 34889 ft | 474 kts | 53° |
| 2026-04-26 09:31 | -1.59062 | 159.80272 | 34890 ft | 474 kts | 53° |
| 2026-04-26 09:31 | -1.55083 | 159.85532 | 34889 ft | 474 kts | 53° |
| 2026-04-26 09:32 | -1.51110 | 159.90789 | 34885 ft | 474 kts | 53° |
| 2026-04-26 09:32 | -1.47130 | 159.96067 | 34883 ft | 474 kts | 53° |
| 2026-04-26 09:33 | -1.43156 | 160.01332 | 34879 ft | 475 kts | 53° |
| 2026-04-26 09:33 | -1.39141 | 160.06580 | 34882 ft | 475 kts | 53° |
| 2026-04-26 09:34 | -1.35107 | 160.11805 | 34881 ft | 475 kts | 53° |
| 2026-04-26 09:34 | -1.31070 | 160.17041 | 34882 ft | 475 kts | 53° |
| 2026-04-26 09:35 | -1.27050 | 160.22273 | 34886 ft | 475 kts | 53° |
| 2026-04-26 09:35 | -1.23021 | 160.27519 | 34886 ft | 475 kts | 53° |
| 2026-04-26 09:36 | -1.18998 | 160.32771 | 34887 ft | 475 kts | 53° |
| 2026-04-26 09:36 | -1.14992 | 160.37990 | 34890 ft | 475 kts | 53° |
| 2026-04-26 09:37 | -1.10968 | 160.43223 | 34888 ft | 475 kts | 53° |
| 2026-04-26 09:37 | -1.06943 | 160.48461 | 34890 ft | 475 kts | 53° |
| 2026-04-26 09:38 | -1.02923 | 160.53699 | 34893 ft | 475 kts | 53° |
| 2026-04-26 09:38 | -0.98906 | 160.58929 | 34893 ft | 474 kts | 53° |
| 2026-04-26 09:39 | -0.94887 | 160.64160 | 34895 ft | 474 kts | 53° |
| 2026-04-26 09:39 | -0.90867 | 160.69399 | 34894 ft | 474 kts | 52° |
| 2026-04-26 09:40 | -0.86850 | 160.74620 | 34894 ft | 474 kts | 52° |
| 2026-04-26 09:40 | -0.82831 | 160.79847 | 34895 ft | 474 kts | 52° |
| 2026-04-26 09:41 | -0.78816 | 160.85073 | 34900 ft | 474 kts | 52° |
| 2026-04-26 09:41 | -0.74797 | 160.90303 | 34898 ft | 474 kts | 52° |
| 2026-04-26 09:42 | -0.70783 | 160.95529 | 34895 ft | 474 kts | 52° |
| 2026-04-26 09:42 | -0.67444 | 160.99877 | 34897 ft | 474 kts | 52° |
| 2026-04-26 09:43 | -0.63431 | 161.05100 | 34891 ft | 474 kts | 52° |
| 2026-04-26 09:43 | -0.59400 | 161.10338 | 34894 ft | 475 kts | 52° |
| 2026-04-26 09:44 | -0.55376 | 161.15570 | 34897 ft | 475 kts | 52° |
| 2026-04-26 09:44 | -0.51354 | 161.20810 | 34899 ft | 475 kts | 52° |
| 2026-04-26 09:45 | -0.47325 | 161.26056 | 34897 ft | 475 kts | 52° |
| 2026-04-26 09:45 | -0.43306 | 161.31290 | 34896 ft | 475 kts | 52° |
| 2026-04-26 09:46 | -0.39278 | 161.36525 | 34906 ft | 475 kts | 51° |
| 2026-04-26 09:46 | -0.35246 | 161.41761 | 34893 ft | 475 kts | 51° |
| 2026-04-26 09:47 | -0.31222 | 161.46999 | 34890 ft | 475 kts | 51° |
| 2026-04-26 09:47 | -0.27186 | 161.52241 | 34890 ft | 476 kts | 51° |
| 2026-04-26 09:48 | -0.23153 | 161.57496 | 34885 ft | 477 kts | 51° |
| 2026-04-26 09:48 | -0.19138 | 161.62727 | 34889 ft | 478 kts | 51° |
| 2026-04-26 09:49 | -0.15090 | 161.67998 | 34886 ft | 478 kts | 51° |
| 2026-04-26 09:49 | -0.11036 | 161.73280 | 34884 ft | 479 kts | 51° |
| 2026-04-26 09:50 | -0.06978 | 161.78561 | 34882 ft | 480 kts | 51° |
| 2026-04-26 09:50 | -0.02906 | 161.83858 | 34879 ft | 481 kts | 51° |
| 2026-04-26 09:51 | 0.01180 | 161.89167 | 34874 ft | 482 kts | 51° |
| 2026-04-26 09:51 | 0.05276 | 161.94488 | 34877 ft | 483 kts | 51° |
| 2026-04-26 09:52 | 0.09373 | 161.99815 | 34876 ft | 483 kts | 51° |
| 2026-04-26 09:52 | 0.15511 | 162.07818 | 34875 ft | 484 kts | 52° |
| 2026-04-26 09:53 | 0.19611 | 162.13155 | 34875 ft | 484 kts | 52° |
| 2026-04-26 09:53 | 0.23711 | 162.18483 | 34876 ft | 484 kts | 52° |
| 2026-04-26 09:54 | 0.27814 | 162.23815 | 34876 ft | 484 kts | 51° |
| 2026-04-26 09:54 | 0.31914 | 162.29142 | 34879 ft | 484 kts | 52° |
| 2026-04-26 09:55 | 0.36007 | 162.34477 | 34881 ft | 484 kts | 52° |
| 2026-04-26 09:55 | 0.40113 | 162.39824 | 34892 ft | 484 kts | 52° |
| 2026-04-26 09:56 | 0.44222 | 162.45164 | 34899 ft | 485 kts | 52° |
| 2026-04-26 09:56 | 0.48327 | 162.50508 | 34902 ft | 484 kts | 52° |
| 2026-04-26 09:57 | 0.52420 | 162.55844 | 34903 ft | 484 kts | 52° |
| 2026-04-26 09:57 | 0.56523 | 162.61189 | 34908 ft | 483 kts | 52° |
| 2026-04-26 09:58 | 0.60589 | 162.66473 | 34911 ft | 482 kts | 52° |
| 2026-04-26 09:58 | 0.64675 | 162.71778 | 34910 ft | 481 kts | 52° |
| 2026-04-26 09:59 | 0.68745 | 162.77075 | 34912 ft | 480 kts | 52° |
| 2026-04-26 09:59 | 0.72805 | 162.82366 | 34914 ft | 479 kts | 53° |
| 2026-04-26 10:00 | 0.76857 | 162.87647 | 34909 ft | 478 kts | 52° |
| 2026-04-26 10:00 | 0.80914 | 162.92917 | 34908 ft | 478 kts | 52° |
| 2026-04-26 10:01 | 0.84964 | 162.98177 | 34905 ft | 477 kts | 52° |
| 2026-04-26 10:01 | 0.89005 | 163.03434 | 34892 ft | 477 kts | 53° |
| 2026-04-26 10:02 | 0.93046 | 163.08699 | 34893 ft | 477 kts | 53° |
| 2026-04-26 10:02 | 0.97087 | 163.13962 | 34892 ft | 477 kts | 53° |
| 2026-04-26 10:03 | 1.01132 | 163.19232 | 34879 ft | 478 kts | 53° |
| 2026-04-26 10:03 | 1.05189 | 163.24512 | 34880 ft | 479 kts | 53° |
| 2026-04-26 10:04 | 1.09254 | 163.29810 | 34883 ft | 480 kts | 53° |
| 2026-04-26 10:04 | 1.13320 | 163.35110 | 34885 ft | 481 kts | 52° |
| 2026-04-26 10:05 | 1.17398 | 163.40415 | 34880 ft | 481 kts | 52° |
| 2026-04-26 10:05 | 1.21484 | 163.45733 | 34884 ft | 482 kts | 53° |
| 2026-04-26 10:06 | 1.25573 | 163.51053 | 34889 ft | 483 kts | 52° |
| 2026-04-26 10:06 | 1.29664 | 163.56379 | 34879 ft | 483 kts | 53° |
| 2026-04-26 10:07 | 1.33730 | 163.61679 | 34880 ft | 483 kts | 52° |
| 2026-04-26 10:07 | 1.37850 | 163.67042 | 34893 ft | 483 kts | 52° |
| 2026-04-26 10:08 | 1.41928 | 163.72344 | 34888 ft | 483 kts | 52° |
| 2026-04-26 10:08 | 1.46020 | 163.77682 | 34888 ft | 483 kts | 53° |
| 2026-04-26 10:09 | 1.50107 | 163.83017 | 34894 ft | 483 kts | 53° |
| 2026-04-26 10:09 | 1.54205 | 163.88349 | 34902 ft | 483 kts | 52° |
| 2026-04-26 10:10 | 1.58304 | 163.93678 | 34897 ft | 483 kts | 52° |
| 2026-04-26 10:10 | 1.62389 | 163.99005 | 34891 ft | 482 kts | 53° |
| 2026-04-26 10:11 | 1.66471 | 164.04335 | 34894 ft | 482 kts | 52° |
| 2026-04-26 10:11 | 1.70561 | 164.09653 | 34890 ft | 482 kts | 52° |
| 2026-04-26 10:12 | 1.74647 | 164.14972 | 34890 ft | 482 kts | 52° |
| 2026-04-26 10:12 | 1.78731 | 164.20297 | 34880 ft | 483 kts | 53° |
| 2026-04-26 10:13 | 1.82784 | 164.25596 | 34884 ft | 483 kts | 53° |
| 2026-04-26 10:13 | 1.86874 | 164.30929 | 34884 ft | 483 kts | 53° |
| 2026-04-26 10:14 | 1.90960 | 164.36258 | 34884 ft | 483 kts | 53° |
| 2026-04-26 10:14 | 1.95058 | 164.41590 | 34882 ft | 483 kts | 53° |
| 2026-04-26 10:15 | 1.99161 | 164.46930 | 34883 ft | 484 kts | 53° |
| 2026-04-26 10:15 | 2.03256 | 164.52273 | 34884 ft | 484 kts | 53° |
| 2026-04-26 10:16 | 2.07354 | 164.57622 | 34888 ft | 484 kts | 53° |
| 2026-04-26 10:16 | 2.11458 | 164.62968 | 34890 ft | 485 kts | 53° |
| 2026-04-26 10:17 | 2.15566 | 164.68327 | 34892 ft | 485 kts | 53° |
| 2026-04-26 10:17 | 2.19670 | 164.73686 | 34898 ft | 485 kts | 53° |
| 2026-04-26 10:18 | 2.23777 | 164.79045 | 34889 ft | 485 kts | 53° |
| 2026-04-26 10:18 | 2.27197 | 164.83506 | 34892 ft | 486 kts | 53° |
| 2026-04-26 10:19 | 2.31310 | 164.88869 | 34890 ft | 486 kts | 53° |
| 2026-04-26 10:19 | 2.35425 | 164.94240 | 34898 ft | 486 kts | 53° |
| 2026-04-26 10:20 | 2.39535 | 164.99606 | 34902 ft | 486 kts | 53° |
| 2026-04-26 10:20 | 2.43653 | 165.04976 | 34900 ft | 486 kts | 53° |
| 2026-04-26 10:21 | 2.47771 | 165.10353 | 34905 ft | 486 kts | 53° |
| 2026-04-26 10:21 | 2.51884 | 165.15727 | 34909 ft | 487 kts | 53° |
| 2026-04-26 10:22 | 2.56007 | 165.21116 | 34901 ft | 487 kts | 53° |
| 2026-04-26 10:22 | 2.60124 | 165.26497 | 34900 ft | 487 kts | 53° |
| 2026-04-26 10:23 | 2.64247 | 165.31874 | 34905 ft | 487 kts | 53° |
| 2026-04-26 10:23 | 2.68368 | 165.37264 | 34906 ft | 488 kts | 53° |
| 2026-04-26 10:24 | 2.72491 | 165.42653 | 34899 ft | 488 kts | 53° |
| 2026-04-26 10:24 | 2.76623 | 165.48047 | 34900 ft | 488 kts | 53° |
| 2026-04-26 10:25 | 2.80723 | 165.53405 | 34906 ft | 487 kts | 53° |
| 2026-04-26 10:25 | 2.84851 | 165.58798 | 34902 ft | 487 kts | 53° |
| 2026-04-26 10:26 | 2.88970 | 165.64179 | 34902 ft | 487 kts | 53° |
| 2026-04-26 10:26 | 2.93091 | 165.69560 | 34903 ft | 487 kts | 53° |
| 2026-04-26 10:27 | 2.97204 | 165.74939 | 34902 ft | 486 kts | 53° |
| 2026-04-26 10:27 | 3.01308 | 165.80313 | 34917 ft | 486 kts | 53° |
| 2026-04-26 10:28 | 3.05415 | 165.85687 | 34918 ft | 485 kts | 53° |
| 2026-04-26 10:28 | 3.09514 | 165.91053 | 34918 ft | 485 kts | 53° |
| 2026-04-26 10:29 | 3.13593 | 165.96389 | 34917 ft | 485 kts | 52° |
| 2026-04-26 10:29 | 3.17690 | 166.01748 | 34909 ft | 485 kts | 52° |
| 2026-04-26 10:30 | 3.21786 | 166.07108 | 34915 ft | 485 kts | 52° |
| 2026-04-26 10:30 | 3.25878 | 166.12465 | 34911 ft | 484 kts | 52° |
| 2026-04-26 10:31 | 3.29970 | 166.17824 | 34907 ft | 484 kts | 52° |
| 2026-04-26 10:31 | 3.34066 | 166.23184 | 34908 ft | 484 kts | 52° |
| 2026-04-26 10:32 | 3.38171 | 166.28558 | 34910 ft | 484 kts | 52° |
| 2026-04-26 10:32 | 3.42263 | 166.33920 | 34909 ft | 485 kts | 52° |
| 2026-04-26 10:33 | 3.46357 | 166.39275 | 34904 ft | 484 kts | 52° |
| 2026-04-26 10:33 | 3.50447 | 166.44632 | 34903 ft | 484 kts | 53° |
| 2026-04-26 10:34 | 3.54538 | 166.49994 | 34903 ft | 484 kts | 53° |
| 2026-04-26 10:34 | 3.58631 | 166.55351 | 34901 ft | 484 kts | 53° |
| 2026-04-26 10:35 | 3.62725 | 166.60715 | 34906 ft | 484 kts | 53° |
| 2026-04-26 10:35 | 3.66818 | 166.66084 | 34900 ft | 485 kts | 53° |
| 2026-04-26 10:36 | 3.70911 | 166.71454 | 34907 ft | 485 kts | 53° |
| 2026-04-26 10:36 | 3.75009 | 166.76815 | 34905 ft | 485 kts | 53° |
| 2026-04-26 10:37 | 3.79102 | 166.82183 | 34903 ft | 484 kts | 53° |
| 2026-04-26 10:37 | 3.83187 | 166.87549 | 34903 ft | 485 kts | 53° |
| 2026-04-26 10:38 | 3.87277 | 166.92919 | 34898 ft | 485 kts | 53° |
| 2026-04-26 10:38 | 3.91363 | 166.98279 | 34890 ft | 485 kts | 53° |
| 2026-04-26 10:39 | 3.95456 | 167.03642 | 34890 ft | 485 kts | 53° |
| 2026-04-26 10:39 | 3.99545 | 167.09018 | 34892 ft | 485 kts | 53° |
| 2026-04-26 10:40 | 4.03614 | 167.14360 | 34896 ft | 485 kts | 53° |
| 2026-04-26 10:40 | 4.07742 | 167.19767 | 34887 ft | 485 kts | 53° |
| 2026-04-26 10:41 | 4.11803 | 167.25109 | 34894 ft | 485 kts | 53° |
| 2026-04-26 10:41 | 4.15885 | 167.30487 | 34889 ft | 485 kts | 53° |
| 2026-04-26 10:42 | 4.19976 | 167.35872 | 34892 ft | 485 kts | 53° |
| 2026-04-26 10:42 | 4.24066 | 167.41246 | 34885 ft | 485 kts | 53° |
| 2026-04-26 10:43 | 4.28163 | 167.46623 | 34888 ft | 485 kts | 53° |
| 2026-04-26 10:43 | 4.32256 | 167.51991 | 34890 ft | 484 kts | 53° |
| 2026-04-26 10:44 | 4.36346 | 167.57361 | 34890 ft | 485 kts | 53° |
| 2026-04-26 10:44 | 4.40432 | 167.62738 | 34889 ft | 485 kts | 53° |
| 2026-04-26 10:45 | 4.44525 | 167.68130 | 34895 ft | 485 kts | 53° |
| 2026-04-26 10:45 | 4.48611 | 167.73511 | 34893 ft | 485 kts | 53° |
| 2026-04-26 10:46 | 4.52697 | 167.78896 | 34903 ft | 485 kts | 53° |
| 2026-04-26 10:46 | 4.56793 | 167.84278 | 34900 ft | 485 kts | 53° |
| 2026-04-26 10:47 | 4.60882 | 167.89651 | 34905 ft | 484 kts | 53° |
| 2026-04-26 10:47 | 4.64966 | 167.95028 | 34895 ft | 484 kts | 53° |
| 2026-04-26 10:48 | 4.69054 | 168.00409 | 34896 ft | 485 kts | 53° |
| 2026-04-26 10:48 | 4.73137 | 168.05787 | 34890 ft | 485 kts | 53° |
| 2026-04-26 10:49 | 4.77199 | 168.11145 | 34885 ft | 485 kts | 53° |
| 2026-04-26 10:49 | 4.81292 | 168.16539 | 34887 ft | 486 kts | 53° |
| 2026-04-26 10:50 | 4.84724 | 168.21066 | 34890 ft | 486 kts | 53° |
| 2026-04-26 10:50 | 4.89479 | 168.27345 | 34886 ft | 487 kts | 53° |
| 2026-04-26 10:51 | 4.95646 | 168.35466 | 34892 ft | 487 kts | 53° |
| 2026-04-26 10:52 | 4.99751 | 168.40885 | 34889 ft | 488 kts | 53° |
| 2026-04-26 10:52 | 5.03855 | 168.46315 | 34892 ft | 488 kts | 53° |
| 2026-04-26 10:53 | 5.07970 | 168.51747 | 34889 ft | 489 kts | 53° |
| 2026-04-26 10:53 | 5.12098 | 168.57185 | 34892 ft | 489 kts | 53° |
| 2026-04-26 10:54 | 5.18269 | 168.65335 | 34889 ft | 489 kts | 53° |
| 2026-04-26 10:54 | 5.22388 | 168.70773 | 34895 ft | 490 kts | 54° |
| 2026-04-26 10:55 | 5.25827 | 168.75317 | 34882 ft | 491 kts | 54° |
| 2026-04-26 10:55 | 5.29971 | 168.80799 | 34878 ft | 493 kts | 53° |
| 2026-04-26 10:56 | 5.34114 | 168.86282 | 34879 ft | 494 kts | 53° |
| 2026-04-26 10:56 | 5.38267 | 168.91784 | 34876 ft | 495 kts | 53° |
| 2026-04-26 10:57 | 5.42397 | 168.97244 | 34881 ft | 496 kts | 53° |
| 2026-04-26 10:57 | 5.46616 | 169.02810 | 34886 ft | 496 kts | 53° |
| 2026-04-26 10:58 | 5.50792 | 169.08325 | 34887 ft | 496 kts | 53° |
| 2026-04-26 10:58 | 5.54934 | 169.13819 | 34888 ft | 497 kts | 53° |
| 2026-04-26 10:59 | 5.59135 | 169.19394 | 34886 ft | 497 kts | 53° |
| 2026-04-26 10:59 | 5.63287 | 169.24900 | 34889 ft | 497 kts | 53° |
| 2026-04-26 11:00 | 5.67492 | 169.30476 | 34896 ft | 497 kts | 53° |
| 2026-04-26 11:00 | 5.71680 | 169.36003 | 34898 ft | 497 kts | 53° |
| 2026-04-26 11:01 | 5.75868 | 169.41551 | 34896 ft | 497 kts | 53° |
| 2026-04-26 11:01 | 5.80039 | 169.47095 | 34889 ft | 497 kts | 53° |
| 2026-04-26 11:02 | 5.84216 | 169.52632 | 34888 ft | 498 kts | 53° |
| 2026-04-26 11:02 | 5.88402 | 169.58186 | 34896 ft | 498 kts | 53° |
| 2026-04-26 11:03 | 5.92570 | 169.63716 | 34900 ft | 498 kts | 53° |
| 2026-04-26 11:03 | 5.96755 | 169.69268 | 34898 ft | 498 kts | 53° |
| 2026-04-26 11:04 | 6.00945 | 169.74824 | 34897 ft | 498 kts | 53° |
| 2026-04-26 11:04 | 6.05115 | 169.80367 | 34775 ft | 492 kts | 53° |
| 2026-04-26 11:05 | 6.07171 | 169.83101 | 34154 ft | 491 kts | 53° |
| 2026-04-26 11:05 | 6.09239 | 169.85852 | 33398 ft | 493 kts | 53° |
| 2026-04-26 11:05 | 6.11281 | 169.88572 | 32604 ft | 494 kts | 53° |
| 2026-04-26 11:05 | 6.13377 | 169.91365 | 31819 ft | 495 kts | 53° |
| 2026-04-26 11:06 | 6.15437 | 169.94110 | 31074 ft | 488 kts | 53° |
| 2026-04-26 11:06 | 6.17504 | 169.96859 | 29988 ft | 483 kts | 53° |
| 2026-04-26 11:06 | 6.19517 | 169.99530 | 28883 ft | 475 kts | 54° |
| 2026-04-26 11:06 | 6.21492 | 170.02149 | 27863 ft | 466 kts | 54° |
| 2026-04-26 11:07 | 6.23436 | 170.04722 | 26871 ft | 456 kts | 54° |
| 2026-04-26 11:07 | 6.25337 | 170.07241 | 26160 ft | 449 kts | 54° |
| 2026-04-26 11:07 | 6.27188 | 170.09699 | 25653 ft | 444 kts | 54° |
| 2026-04-26 11:07 | 6.29040 | 170.12168 | 25107 ft | 439 kts | 54° |
| 2026-04-26 11:08 | 6.30876 | 170.14620 | 24574 ft | 435 kts | 54° |
| 2026-04-26 11:08 | 6.32687 | 170.17036 | 24053 ft | 431 kts | 54° |
| 2026-04-26 11:08 | 6.34488 | 170.19432 | 23553 ft | 426 kts | 54° |
| 2026-04-26 11:08 | 6.36271 | 170.21800 | 23003 ft | 421 kts | 54° |
| 2026-04-26 11:09 | 6.38026 | 170.24131 | 22523 ft | 414 kts | 54° |
| 2026-04-26 11:09 | 6.39753 | 170.26426 | 22046 ft | 409 kts | 54° |
| 2026-04-26 11:09 | 6.41436 | 170.28668 | 21577 ft | 404 kts | 54° |
| 2026-04-26 11:09 | 6.43123 | 170.30918 | 21096 ft | 401 kts | 54° |
| 2026-04-26 11:10 | 6.44795 | 170.33149 | 20608 ft | 398 kts | 53° |
| 2026-04-26 11:10 | 6.46452 | 170.35360 | 20117 ft | 395 kts | 53° |
| 2026-04-26 11:10 | 6.48104 | 170.37559 | 19617 ft | 392 kts | 53° |
| 2026-04-26 11:10 | 6.49738 | 170.39738 | 19111 ft | 390 kts | 53° |
| 2026-04-26 11:11 | 6.51363 | 170.41909 | 18597 ft | 387 kts | 53° |
| 2026-04-26 11:11 | 6.52984 | 170.44071 | 18076 ft | 386 kts | 53° |
| 2026-04-26 11:11 | 6.54587 | 170.46210 | 17519 ft | 383 kts | 53° |
| 2026-04-26 11:11 | 6.56189 | 170.48344 | 17009 ft | 378 kts | 53° |
| 2026-04-26 11:12 | 6.57765 | 170.50448 | 16493 ft | 374 kts | 53° |
| 2026-04-26 11:12 | 6.59324 | 170.52522 | 15992 ft | 370 kts | 53° |
| 2026-04-26 11:12 | 6.60869 | 170.54578 | 15487 ft | 367 kts | 53° |
| 2026-04-26 11:12 | 6.62399 | 170.56617 | 14990 ft | 363 kts | 54° |
| 2026-04-26 11:13 | 6.63920 | 170.58641 | 14482 ft | 360 kts | 54° |
| 2026-04-26 11:13 | 6.65425 | 170.60646 | 13983 ft | 358 kts | 54° |
| 2026-04-26 11:13 | 6.66923 | 170.62641 | 13463 ft | 355 kts | 54° |
| 2026-04-26 11:13 | 6.68403 | 170.64617 | 12946 ft | 351 kts | 54° |
| 2026-04-26 11:14 | 6.69846 | 170.66547 | 12471 ft | 347 kts | 54° |
| 2026-04-26 11:14 | 6.71292 | 170.68480 | 11992 ft | 343 kts | 54° |
| 2026-04-26 11:14 | 6.72724 | 170.70395 | 11505 ft | 340 kts | 54° |
| 2026-04-26 11:14 | 6.73664 | 170.71652 | 11200 ft | 338 kts | 54° |
| 2026-04-26 11:15 | 6.75550 | 170.74174 | 10568 ft | 335 kts | 54° |
| 2026-04-26 11:15 | 6.76942 | 170.76034 | 10250 ft | 328 kts | 54° |
| 2026-04-26 11:15 | 6.78271 | 170.77806 | 10141 ft | 315 kts | 54° |
| 2026-04-26 11:15 | 6.79571 | 170.79540 | 10022 ft | 304 kts | 54° |
| 2026-04-26 11:16 | 6.80820 | 170.81208 | 9906 ft | 294 kts | 54° |
| 2026-04-26 11:16 | 6.82030 | 170.82827 | 9737 ft | 286 kts | 54° |
| 2026-04-26 11:16 | 6.83235 | 170.84437 | 9349 ft | 286 kts | 54° |
| 2026-04-26 11:16 | 6.84426 | 170.86026 | 9051 ft | 283 kts | 55° |
| 2026-04-26 11:17 | 6.85610 | 170.87612 | 8695 ft | 282 kts | 55° |
| 2026-04-26 11:17 | 6.86790 | 170.89188 | 8360 ft | 281 kts | 54° |
| 2026-04-26 11:17 | 6.87964 | 170.90754 | 8041 ft | 279 kts | 54° |
| 2026-04-26 11:17 | 6.88780 | 170.91837 | 7821 ft | 278 kts | 54° |
| 2026-04-26 11:18 | 6.89943 | 170.93386 | 7484 ft | 276 kts | 54° |
| 2026-04-26 11:18 | 6.91096 | 170.94930 | 7157 ft | 275 kts | 54° |
| 2026-04-26 11:18 | 6.92254 | 170.96487 | 6486 ft | 288 kts | 54° |
| 2026-04-26 11:18 | 6.93456 | 170.98103 | 5977 ft | 284 kts | 55° |
| 2026-04-26 11:19 | 6.94619 | 170.99662 | 5588 ft | 272 kts | 54° |
| 2026-04-26 11:19 | 6.95729 | 171.01142 | 5331 ft | 257 kts | 54° |
| 2026-04-26 11:19 | 6.96782 | 171.02545 | 5037 ft | 246 kts | 54° |
| 2026-04-26 11:19 | 6.97792 | 171.03890 | 4724 ft | 236 kts | 54° |
| 2026-04-26 11:20 | 6.98762 | 171.05186 | 4416 ft | 227 kts | 54° |
| 2026-04-26 11:20 | 6.99382 | 171.06016 | 4211 ft | 221 kts | 54° |
| 2026-04-26 11:20 | 7.00571 | 171.07615 | 3839 ft | 210 kts | 54° |
| 2026-04-26 11:20 | 7.01442 | 171.08783 | 3566 ft | 207 kts | 54° |
| 2026-04-26 11:21 | 7.02227 | 171.09978 | 3293 ft | 201 kts | 67° |
| 2026-04-26 11:21 | 7.02601 | 171.11297 | 3034 ft | 192 kts | 76° |
| 2026-04-26 11:21 | 7.02910 | 171.12586 | 2779 ft | 187 kts | 76° |
| 2026-04-26 11:21 | 7.03222 | 171.13859 | 2531 ft | 187 kts | 75° |
| 2026-04-26 11:22 | 7.03531 | 171.15125 | 2301 ft | 183 kts | 75° |
| 2026-04-26 11:22 | 7.03829 | 171.16341 | 2048 ft | 175 kts | 75° |
| 2026-04-26 11:22 | 7.04117 | 171.17507 | 1814 ft | 168 kts | 75° |
| 2026-04-26 11:22 | 7.04392 | 171.18622 | 1586 ft | 159 kts | 75° |
| 2026-04-26 11:23 | 7.04644 | 171.19653 | 1383 ft | 147 kts | 74° |
| 2026-04-26 11:23 | 7.04882 | 171.20630 | 1187 ft | 138 kts | 75° |
| 2026-04-26 11:23 | 7.05092 | 171.21491 | 1014 ft | 136 kts | 73° |
| 2026-04-26 11:23 | 7.05317 | 171.22410 | 822 ft | 137 kts | 74° |
| 2026-04-26 11:24 | 7.05536 | 171.23304 | 649 ft | 136 kts | 76° |
| 2026-04-26 11:24 | 7.05769 | 171.24214 | 445 ft | 136 kts | 73° |
| 2026-04-26 11:24 | 7.05969 | 171.25067 | 250 ft | 134 kts | 74° |
| 2026-04-26 11:24 | 7.06180 | 171.25951 | 65 ft | 137 kts | 74° |
| 2026-04-26 11:25 | 7.06394 | 171.26787 | -1 ft | 123 kts | 74° |
| 2026-04-26 11:25 | 7.06529 | 171.27309 | 1 ft | 40 kts | 76° |
| 2026-04-26 11:25 | 7.06574 | 171.27507 | 1 ft | 28 kts | 76° |
| 2026-04-26 11:25 | 7.06621 | 171.27700 | 3 ft | 28 kts | 75° |
| 2026-04-26 11:26 | 7.06657 | 171.27829 | 2 ft | 28 kts | 73° |
| 2026-04-26 11:26 | 7.06687 | 171.27944 | 1 ft | 14 kts | 76° |
| 2026-04-26 11:26 | 7.06707 | 171.28048 | 1 ft | 16 kts | 80° |
| 2026-04-26 11:26 | 7.06746 | 171.28096 | 1 ft | 5 kts | 352° |
| 2026-04-26 11:27 | 7.06768 | 171.28092 | 3 ft | 5 kts | 349° |
| 2026-04-26 11:27 | 7.06785 | 171.28089 | 3 ft | 0 kts | 349° |
| 2026-04-26 11:27 | 7.06790 | 171.28089 | 4 ft | 1 kts | 358° |
| 2026-04-26 11:27 | 7.06797 | 171.28090 | 4 ft | 1 kts | 14° |
| 2026-04-26 11:28 | 7.06803 | 171.28096 | 4 ft | 1 kts | 42° |
| 2026-04-26 11:28 | 7.06807 | 171.28107 | 4 ft | 2 kts | 72° |
| 2026-04-26 11:28 | 7.06814 | 171.28129 | 4 ft | 4 kts | 73° |
| 2026-04-26 11:28 | 7.06837 | 171.28135 | 5 ft | 4 kts | 339° |
| 2026-04-26 11:29 | 7.06842 | 171.28111 | 5 ft | 4 kts | 255° |
| 2026-04-26 11:29 | 7.06825 | 171.28112 | 5 ft | 3 kts | 121° |
| 2026-04-26 11:29 | 7.06822 | 171.28118 | 4 ft | 0 kts | 115° |